createdAt,value
2022-12-19T00:00:24.111Z,79.00
2022-12-19T00:01:24.425Z,79.21
2022-12-19T00:02:24.783Z,79.32
2022-12-19T00:03:25.216Z,79.21
2022-12-19T00:04:25.220Z,79.21
2022-12-19T00:05:25.473Z,79.32
2022-12-19T00:06:25.690Z,79.32
2022-12-19T00:07:25.937Z,79.21
2022-12-19T00:08:26.181Z,79.21
2022-12-19T00:09:26.420Z,79.21
2022-12-19T00:10:26.658Z,79.10
2022-12-19T00:11:26.910Z,79.10
2022-12-19T00:12:27.151Z,79.21
2022-12-19T00:13:27.427Z,79.10
2022-12-19T00:14:27.721Z,79.00
2022-12-19T00:15:27.970Z,79.00
2022-12-19T00:16:28.327Z,79.00
2022-12-19T00:17:28.470Z,79.00
2022-12-19T00:18:28.731Z,79.00
2022-12-19T00:19:28.960Z,79.10
2022-12-19T00:20:29.225Z,79.10
2022-12-19T00:21:29.469Z,79.10
2022-12-19T00:22:29.739Z,79.00
2022-12-19T00:23:30.004Z,79.10
2022-12-19T00:24:30.269Z,79.10
2022-12-19T00:25:30.510Z,78.89
2022-12-19T00:26:30.760Z,78.89
2022-12-19T00:27:31.002Z,79.10
2022-12-19T00:28:31.302Z,79.10
2022-12-19T00:29:31.530Z,79.00
2022-12-19T00:30:31.792Z,78.89
2022-12-19T00:31:32.073Z,78.89
2022-12-19T00:32:32.341Z,78.89
2022-12-19T00:33:32.622Z,78.89
2022-12-19T00:34:32.870Z,78.89
2022-12-19T00:35:33.109Z,78.79
2022-12-19T00:36:33.372Z,78.89
2022-12-19T00:37:33.611Z,79.00
2022-12-19T00:38:33.860Z,78.89
2022-12-19T00:39:34.125Z,78.89
2022-12-19T00:40:34.370Z,79.03
2022-12-19T00:41:34.616Z,78.93
2022-12-19T00:42:34.881Z,79.03
2022-12-19T00:43:35.118Z,79.00
2022-12-19T00:44:35.362Z,78.79
2022-12-19T00:45:35.661Z,78.79
2022-12-19T00:46:35.988Z,78.79
2022-12-19T00:47:36.201Z,78.82
2022-12-19T00:48:36.476Z,78.68
2022-12-19T00:49:36.711Z,78.51
2022-12-19T00:50:37.002Z,78.72
2022-12-19T00:51:37.254Z,78.93
2022-12-19T00:52:37.512Z,79.03
2022-12-19T00:53:37.773Z,79.03
2022-12-19T00:54:38.079Z,79.03
2022-12-19T00:55:38.331Z,79.14
2022-12-19T00:56:38.621Z,79.25
2022-12-19T00:57:38.842Z,79.14
2022-12-19T00:58:43.409Z,79.14
2022-12-19T00:59:40.361Z,79.14
2022-12-19T01:00:39.697Z,79.03
2022-12-19T01:01:40.114Z,78.93
2022-12-19T01:02:40.384Z,78.82
2022-12-19T01:03:52.896Z,78.82
2022-12-19T01:04:42.198Z,78.93
2022-12-19T01:05:42.080Z,78.93
2022-12-19T01:06:41.387Z,79.03
2022-12-19T01:07:41.666Z,79.03
2022-12-19T01:08:41.913Z,79.25
2022-12-19T01:09:42.165Z,79.35
2022-12-19T01:10:42.411Z,79.25
2022-12-19T01:11:42.653Z,79.03
2022-12-19T01:12:42.915Z,79.03
2022-12-19T01:13:43.176Z,79.03
2022-12-19T01:14:43.425Z,79.14
2022-12-19T01:15:43.672Z,79.14
2022-12-19T01:16:43.936Z,79.03
2022-12-19T01:17:45.097Z,78.93
2022-12-19T01:18:44.538Z,78.93
2022-12-19T01:19:44.941Z,78.72
2022-12-19T01:20:45.051Z,78.72
2022-12-19T01:21:45.302Z,78.82
2022-12-19T01:22:45.612Z,78.93
2022-12-19T01:23:45.881Z,79.03
2022-12-19T01:24:46.133Z,79.25
2022-12-19T01:25:46.382Z,79.25
2022-12-19T01:26:46.636Z,79.03
2022-12-19T01:27:46.884Z,79.03
2022-12-19T01:28:47.144Z,79.14
2022-12-19T01:29:52.353Z,79.25
2022-12-19T01:30:48.732Z,79.14
2022-12-19T01:31:48.112Z,79.14
2022-12-19T01:32:48.290Z,79.03
2022-12-19T01:33:48.544Z,79.17
2022-12-19T01:34:48.795Z,79.49
2022-12-19T01:35:49.049Z,79.49
2022-12-19T01:36:49.293Z,79.39
2022-12-19T01:37:49.544Z,79.60
2022-12-19T01:38:49.804Z,79.60
2022-12-19T01:39:50.063Z,79.71
2022-12-19T01:40:50.303Z,79.81
2022-12-19T01:41:50.574Z,79.81
2022-12-19T01:42:50.823Z,79.81
2022-12-19T01:43:51.073Z,79.81
2022-12-19T01:44:51.318Z,79.91
2022-12-19T01:45:51.616Z,79.91
2022-12-19T01:46:51.884Z,79.91
2022-12-19T01:47:53.499Z,79.81
2022-12-19T01:48:52.474Z,80.02
2022-12-19T01:49:52.706Z,79.91
2022-12-19T01:51:01.137Z,79.91
2022-12-19T01:51:54.221Z,79.91
2022-12-19T01:52:53.505Z,80.02
2022-12-19T01:53:53.767Z,80.13
2022-12-19T01:54:54.012Z,80.02
2022-12-19T01:55:54.273Z,80.02
2022-12-19T01:56:54.496Z,80.13
2022-12-19T01:57:54.751Z,80.02
2022-12-19T01:59:06.595Z,79.91
2022-12-19T01:59:56.240Z,79.81
2022-12-19T02:00:55.561Z,79.91
2022-12-19T02:01:55.860Z,79.81
2022-12-19T02:02:56.282Z,79.81
2022-12-19T02:03:56.443Z,79.91
2022-12-19T02:04:56.692Z,80.02
2022-12-19T02:05:56.923Z,80.02
2022-12-19T02:06:57.173Z,79.91
2022-12-19T02:07:57.448Z,79.81
2022-12-19T02:08:57.715Z,79.81
2022-12-19T02:09:57.954Z,79.81
2022-12-19T02:10:58.234Z,79.81
2022-12-19T02:11:58.474Z,79.67
2022-12-19T02:12:58.737Z,79.46
2022-12-19T02:13:58.994Z,79.35
2022-12-19T02:15:02.469Z,79.35
2022-12-19T02:15:59.542Z,79.35
2022-12-19T02:16:59.837Z,79.25
2022-12-19T02:18:00.087Z,79.25
2022-12-19T02:19:00.358Z,79.25
2022-12-19T02:20:00.611Z,79.14
2022-12-19T02:21:00.865Z,79.14
2022-12-19T02:22:01.136Z,79.25
2022-12-19T02:23:01.379Z,79.25
2022-12-19T02:24:01.647Z,79.35
2022-12-19T02:25:01.937Z,79.35
2022-12-19T02:26:02.174Z,79.25
2022-12-19T02:27:02.422Z,79.14
2022-12-19T02:28:02.714Z,79.14
2022-12-19T02:29:02.943Z,79.14
2022-12-19T02:30:03.193Z,79.03
2022-12-19T02:31:07.320Z,79.03
2022-12-19T02:32:04.737Z,79.03
2022-12-19T02:33:03.968Z,79.14
2022-12-19T02:34:04.196Z,79.14
2022-12-19T02:35:04.456Z,78.93
2022-12-19T02:36:04.705Z,78.93
2022-12-19T02:37:04.963Z,78.82
2022-12-19T02:38:06.801Z,78.93
2022-12-19T02:39:05.505Z,78.93
2022-12-19T02:40:05.753Z,78.93
2022-12-19T02:41:06.000Z,78.93
2022-12-19T02:42:06.250Z,78.82
2022-12-19T02:43:06.511Z,78.72
2022-12-19T02:44:06.781Z,78.61
2022-12-19T02:45:07.017Z,78.61
2022-12-19T02:46:07.381Z,78.61
2022-12-19T02:47:07.514Z,78.51
2022-12-19T02:48:09.164Z,78.72
2022-12-19T02:49:08.112Z,78.61
2022-12-19T02:50:08.384Z,78.51
2022-12-19T02:51:08.643Z,78.40
2022-12-19T02:52:08.888Z,78.30
2022-12-19T02:53:09.146Z,78.19
2022-12-19T02:54:09.417Z,78.30
2022-12-19T02:55:09.689Z,78.40
2022-12-19T02:56:10.419Z,78.40
2022-12-19T02:57:10.269Z,78.54
2022-12-19T02:58:10.509Z,78.54
2022-12-19T02:59:10.788Z,78.40
2022-12-19T03:00:11.021Z,78.30
2022-12-19T03:01:11.326Z,78.30
2022-12-19T03:02:11.838Z,78.19
2022-12-19T03:03:12.053Z,78.08
2022-12-19T03:04:12.151Z,78.12
2022-12-19T03:05:12.393Z,78.12
2022-12-19T03:06:12.643Z,78.12
2022-12-19T03:07:12.897Z,78.22
2022-12-19T03:08:13.134Z,78.33
2022-12-19T03:09:13.414Z,78.22
2022-12-19T03:10:13.664Z,78.22
2022-12-19T03:11:13.905Z,78.22
2022-12-19T03:12:17.259Z,78.12
2022-12-19T03:13:14.445Z,78.12
2022-12-19T03:14:14.727Z,78.12
2022-12-19T03:15:14.974Z,78.22
2022-12-19T03:16:15.318Z,78.22
2022-12-19T03:17:15.574Z,78.12
2022-12-19T03:18:15.814Z,78.02
2022-12-19T03:19:16.095Z,78.12
2022-12-19T03:20:16.346Z,78.22
2022-12-19T03:21:16.601Z,78.22
2022-12-19T03:22:16.862Z,78.12
2022-12-19T03:23:17.123Z,78.12
2022-12-19T03:24:17.380Z,78.12
2022-12-19T03:25:17.632Z,78.12
2022-12-19T03:26:17.888Z,78.22
2022-12-19T03:27:18.131Z,78.33
2022-12-19T03:28:18.387Z,78.37
2022-12-19T03:29:18.662Z,78.47
2022-12-19T03:30:18.923Z,78.68
2022-12-19T03:31:19.202Z,78.68
2022-12-19T03:32:19.402Z,78.54
2022-12-19T03:33:19.654Z,78.58
2022-12-19T03:34:19.925Z,78.58
2022-12-19T03:35:20.164Z,78.58
2022-12-19T03:36:20.414Z,78.68
2022-12-19T03:37:20.683Z,78.68
2022-12-19T03:38:20.922Z,78.58
2022-12-19T03:39:21.195Z,78.58
2022-12-19T03:40:21.450Z,78.58
2022-12-19T03:41:21.686Z,78.58
2022-12-19T03:42:21.949Z,78.58
2022-12-19T03:43:22.265Z,78.58
2022-12-19T03:44:22.533Z,78.68
2022-12-19T03:45:22.817Z,78.68
2022-12-19T03:46:23.177Z,78.79
2022-12-19T03:47:23.402Z,79.00
2022-12-19T03:48:23.648Z,78.79
2022-12-19T03:49:23.920Z,78.89
2022-12-19T03:50:24.182Z,78.89
2022-12-19T03:51:24.467Z,78.89
2022-12-19T03:52:24.701Z,78.79
2022-12-19T03:53:24.977Z,78.68
2022-12-19T03:54:25.222Z,78.79
2022-12-19T03:55:25.472Z,78.79
2022-12-19T03:56:25.739Z,78.89
2022-12-19T03:57:25.980Z,79.00
2022-12-19T03:58:26.248Z,78.89
2022-12-19T03:59:26.530Z,78.79
2022-12-19T04:00:26.816Z,78.79
2022-12-19T04:01:27.150Z,78.79
2022-12-19T04:02:27.382Z,78.79
2022-12-19T04:03:27.568Z,78.79
2022-12-19T04:04:27.884Z,78.89
2022-12-19T04:05:28.117Z,78.89
2022-12-19T04:06:28.380Z,78.89
2022-12-19T04:07:28.640Z,78.89
2022-12-19T04:08:28.894Z,78.89
2022-12-19T04:09:29.162Z,79.00
2022-12-19T04:10:29.416Z,78.89
2022-12-19T04:11:29.682Z,78.89
2022-12-19T04:12:29.940Z,78.79
2022-12-19T04:13:30.209Z,78.89
2022-12-19T04:14:30.492Z,78.89
2022-12-19T04:15:30.762Z,78.79
2022-12-19T04:16:31.047Z,78.79
2022-12-19T04:17:31.340Z,78.89
2022-12-19T04:18:31.594Z,78.79
2022-12-19T04:19:31.848Z,78.79
2022-12-19T04:20:32.102Z,78.89
2022-12-19T04:21:32.342Z,78.89
2022-12-19T04:22:32.601Z,79.00
2022-12-19T04:23:32.854Z,78.89
2022-12-19T04:24:33.116Z,78.79
2022-12-19T04:25:33.362Z,78.79
2022-12-19T04:26:33.634Z,78.79
2022-12-19T04:27:33.882Z,78.79
2022-12-19T04:28:34.178Z,79.00
2022-12-19T04:29:34.432Z,79.00
2022-12-19T04:30:36.592Z,78.79
2022-12-19T04:31:35.013Z,78.89
2022-12-19T04:32:35.164Z,79.00
2022-12-19T04:33:35.423Z,79.11
2022-12-19T04:34:38.911Z,79.00
2022-12-19T04:35:36.992Z,79.11
2022-12-19T04:36:36.313Z,79.32
2022-12-19T04:37:36.587Z,79.32
2022-12-19T04:38:36.842Z,79.32
2022-12-19T04:39:37.093Z,79.32
2022-12-19T04:40:41.253Z,79.43
2022-12-19T04:41:37.644Z,79.43
2022-12-19T04:42:37.901Z,79.32
2022-12-19T04:43:38.158Z,79.32
2022-12-19T04:44:38.413Z,79.43
2022-12-19T04:45:38.679Z,79.32
2022-12-19T04:46:39.020Z,79.21
2022-12-19T04:47:39.271Z,79.21
2022-12-19T04:48:39.528Z,79.21
2022-12-19T04:49:39.794Z,79.21
2022-12-19T04:50:40.086Z,79.32
2022-12-19T04:51:40.303Z,79.43
2022-12-19T04:52:40.576Z,79.32
2022-12-19T04:53:40.813Z,79.32
2022-12-19T04:54:41.099Z,79.43
2022-12-19T04:55:41.333Z,79.53
2022-12-19T04:56:41.602Z,79.53
2022-12-19T04:57:41.873Z,79.53
2022-12-19T04:58:42.164Z,79.43
2022-12-19T04:59:42.463Z,79.32
2022-12-19T05:00:43.263Z,79.32
2022-12-19T05:01:43.081Z,79.32
2022-12-19T05:02:43.659Z,79.35
2022-12-19T05:03:43.603Z,79.32
2022-12-19T05:04:43.903Z,79.46
2022-12-19T05:05:44.082Z,79.46
2022-12-19T05:06:45.337Z,79.57
2022-12-19T05:07:44.709Z,79.67
2022-12-19T05:08:45.003Z,79.57
2022-12-19T05:09:45.364Z,79.57
2022-12-19T05:10:45.721Z,79.63
2022-12-19T05:11:45.954Z,79.57
2022-12-19T05:12:46.244Z,79.53
2022-12-19T05:13:46.510Z,79.53
2022-12-19T05:14:46.765Z,79.43
2022-12-19T05:15:47.082Z,79.32
2022-12-19T05:16:47.351Z,79.43
2022-12-19T05:17:47.683Z,79.43
2022-12-19T05:18:48.057Z,79.43
2022-12-19T05:19:48.282Z,79.32
2022-12-19T05:20:48.590Z,79.32
2022-12-19T05:21:48.977Z,79.46
2022-12-19T05:22:49.084Z,79.43
2022-12-19T05:23:49.341Z,79.53
2022-12-19T05:24:49.623Z,79.32
2022-12-19T05:25:49.866Z,79.21
2022-12-19T05:26:50.132Z,79.11
2022-12-19T05:27:50.381Z,79.11
2022-12-19T05:28:50.649Z,79.11
2022-12-19T05:29:50.941Z,79.11
2022-12-19T05:30:52.634Z,79.00
2022-12-19T05:31:51.458Z,78.89
2022-12-19T05:32:51.739Z,78.89
2022-12-19T05:33:51.991Z,78.89
2022-12-19T05:34:52.261Z,79.14
2022-12-19T05:35:52.524Z,79.25
2022-12-19T05:36:52.781Z,79.14
2022-12-19T05:37:53.017Z,79.25
2022-12-19T05:38:53.285Z,79.25
2022-12-19T05:39:53.569Z,79.25
2022-12-19T05:40:53.801Z,79.14
2022-12-19T05:41:54.050Z,79.03
2022-12-19T05:42:54.291Z,79.14
2022-12-19T05:43:54.545Z,79.14
2022-12-19T05:44:54.809Z,79.25
2022-12-19T05:45:55.049Z,79.14
2022-12-19T05:46:55.326Z,79.03
2022-12-19T05:47:59.938Z,79.03
2022-12-19T05:48:56.927Z,78.93
2022-12-19T05:49:56.240Z,79.03
2022-12-19T05:50:56.486Z,79.03
2022-12-19T05:51:56.765Z,79.03
2022-12-19T05:52:57.076Z,79.03
2022-12-19T05:53:57.301Z,78.93
2022-12-19T05:54:57.614Z,78.93
2022-12-19T05:55:57.880Z,79.03
2022-12-19T05:56:58.068Z,78.93
2022-12-19T05:57:58.348Z,78.93
2022-12-19T05:58:58.627Z,79.14
2022-12-19T05:59:58.887Z,79.14
2022-12-19T06:01:00.816Z,79.03
2022-12-19T06:01:59.514Z,79.14
2022-12-19T06:02:59.871Z,79.14
2022-12-19T06:04:00.091Z,79.14
2022-12-19T06:05:00.338Z,79.14
2022-12-19T06:06:00.576Z,79.39
2022-12-19T06:07:00.852Z,79.39
2022-12-19T06:08:01.112Z,79.39
2022-12-19T06:09:01.367Z,79.35
2022-12-19T06:10:01.636Z,79.39
2022-12-19T06:11:01.889Z,79.49
2022-12-19T06:12:02.138Z,79.49
2022-12-19T06:13:02.407Z,79.39
2022-12-19T06:14:02.740Z,79.49
2022-12-19T06:15:03.030Z,79.60
2022-12-19T06:16:03.331Z,79.60
2022-12-19T06:17:03.560Z,79.60
2022-12-19T06:18:03.828Z,79.60
2022-12-19T06:19:04.082Z,79.71
2022-12-19T06:20:04.354Z,79.81
2022-12-19T06:21:04.584Z,79.88
2022-12-19T06:22:04.829Z,79.77
2022-12-19T06:23:05.082Z,79.77
2022-12-19T06:24:05.337Z,79.77
2022-12-19T06:25:05.645Z,79.77
2022-12-19T06:26:05.876Z,79.77
2022-12-19T06:27:06.132Z,79.77
2022-12-19T06:28:06.381Z,79.77
2022-12-19T06:29:06.626Z,79.77
2022-12-19T06:30:06.898Z,79.88
2022-12-19T06:31:07.253Z,79.99
2022-12-19T06:32:07.527Z,79.88
2022-12-19T06:33:07.845Z,79.99
2022-12-19T06:34:08.099Z,79.99
2022-12-19T06:35:08.378Z,80.09
2022-12-19T06:36:08.647Z,79.99
2022-12-19T06:37:08.905Z,80.05
2022-12-19T06:38:09.148Z,80.05
2022-12-19T06:39:09.402Z,79.95
2022-12-19T06:40:09.991Z,79.95
2022-12-19T06:41:10.031Z,80.05
2022-12-19T06:42:10.168Z,79.95
2022-12-19T06:43:10.426Z,79.95
2022-12-19T06:44:10.685Z,80.05
2022-12-19T06:45:10.968Z,79.85
2022-12-19T06:46:11.230Z,79.85
2022-12-19T06:47:11.514Z,79.95
2022-12-19T06:48:11.756Z,79.95
2022-12-19T06:49:12.084Z,79.95
2022-12-19T06:50:12.328Z,79.95
2022-12-19T06:51:12.565Z,79.85
2022-12-19T06:52:12.823Z,79.81
2022-12-19T06:53:13.107Z,79.81
2022-12-19T06:54:13.373Z,79.91
2022-12-19T06:55:13.649Z,79.91
2022-12-19T06:56:13.906Z,79.91
2022-12-19T06:57:14.206Z,79.91
2022-12-19T06:58:14.462Z,79.81
2022-12-19T06:59:14.725Z,79.71
2022-12-19T07:00:15.089Z,79.60
2022-12-19T07:01:15.327Z,79.81
2022-12-19T07:02:15.683Z,79.81
2022-12-19T07:03:15.967Z,79.81
2022-12-19T07:04:16.227Z,80.02
2022-12-19T07:05:16.516Z,80.02
2022-12-19T07:06:16.771Z,80.13
2022-12-19T07:07:17.047Z,80.02
2022-12-19T07:08:17.321Z,80.02
2022-12-19T07:09:17.564Z,79.91
2022-12-19T07:10:17.844Z,80.02
2022-12-19T07:11:18.099Z,80.02
2022-12-19T07:12:18.368Z,80.02
2022-12-19T07:13:18.647Z,80.02
2022-12-19T07:14:18.907Z,80.02
2022-12-19T07:15:19.195Z,80.13
2022-12-19T07:16:19.516Z,80.23
2022-12-19T07:17:19.809Z,80.44
2022-12-19T07:18:20.067Z,80.44
2022-12-19T07:19:20.355Z,80.33
2022-12-19T07:20:20.651Z,80.33
2022-12-19T07:21:20.916Z,80.33
2022-12-19T07:22:21.186Z,80.33
2022-12-19T07:23:21.476Z,80.33
2022-12-19T07:24:21.737Z,80.33
2022-12-19T07:25:22.026Z,80.33
2022-12-19T07:26:22.301Z,80.33
2022-12-19T07:27:22.592Z,80.33
2022-12-19T07:28:22.894Z,80.33
2022-12-19T07:29:23.174Z,80.41
2022-12-19T07:30:23.457Z,80.41
2022-12-19T07:31:23.926Z,80.19
2022-12-19T07:32:24.015Z,80.30
2022-12-19T07:33:24.296Z,80.19
2022-12-19T07:34:24.584Z,80.19
2022-12-19T07:35:24.875Z,80.09
2022-12-19T07:36:25.165Z,80.09
2022-12-19T07:37:25.489Z,80.19
2022-12-19T07:38:25.770Z,80.19
2022-12-19T07:39:26.054Z,80.19
2022-12-19T07:40:26.338Z,80.19
2022-12-19T07:41:26.618Z,80.09
2022-12-19T07:42:30.879Z,79.99
2022-12-19T07:43:28.168Z,79.84
2022-12-19T07:44:27.376Z,79.88
2022-12-19T07:45:27.780Z,80.05
2022-12-19T07:46:27.928Z,80.05
2022-12-19T07:47:28.219Z,80.05
2022-12-19T07:48:28.498Z,80.05
2022-12-19T07:49:28.775Z,79.95
2022-12-19T07:50:29.099Z,79.95
2022-12-19T07:51:29.298Z,79.95
2022-12-19T07:52:29.569Z,80.05
2022-12-19T07:53:29.836Z,80.05
2022-12-19T07:54:30.139Z,80.27
2022-12-19T07:55:30.414Z,80.27
2022-12-19T07:56:30.708Z,80.27
2022-12-19T07:57:31.005Z,80.27
2022-12-19T07:58:31.297Z,80.27
2022-12-19T07:59:38.695Z,80.16
2022-12-19T08:00:32.836Z,80.05
2022-12-19T08:01:32.124Z,80.05
2022-12-19T08:02:32.473Z,80.27
2022-12-19T08:03:32.567Z,80.27
2022-12-19T08:04:32.858Z,80.27
2022-12-19T08:05:33.169Z,80.33
2022-12-19T08:06:39.100Z,80.33
2022-12-19T08:07:34.706Z,80.12
2022-12-19T08:08:34.048Z,80.12
2022-12-19T08:09:34.297Z,80.23
2022-12-19T08:10:34.575Z,80.33
2022-12-19T08:11:34.871Z,80.23
2022-12-19T08:12:35.149Z,80.23
2022-12-19T08:13:39.694Z,80.33
2022-12-19T08:14:36.687Z,80.33
2022-12-19T08:15:36.057Z,80.54
2022-12-19T08:16:55.489Z,80.54
2022-12-19T08:17:37.622Z,80.54
2022-12-19T08:18:36.850Z,80.65
2022-12-19T08:19:37.159Z,80.76
2022-12-19T08:20:37.485Z,80.76
2022-12-19T08:21:37.755Z,80.76
2022-12-19T08:22:38.056Z,80.76
2022-12-19T08:23:38.307Z,80.76
2022-12-19T08:24:38.600Z,80.76
2022-12-19T08:25:38.886Z,80.97
2022-12-19T08:26:43.191Z,80.86
2022-12-19T08:27:40.446Z,80.93
2022-12-19T08:28:39.799Z,80.93
2022-12-19T08:29:40.133Z,80.93
2022-12-19T08:30:40.481Z,80.93
2022-12-19T08:31:40.725Z,80.82
2022-12-19T08:32:41.020Z,80.93
2022-12-19T08:33:41.341Z,80.82
2022-12-19T08:34:41.654Z,80.82
2022-12-19T08:35:42.039Z,80.82
2022-12-19T08:36:42.210Z,80.79
2022-12-19T08:37:42.529Z,80.79
2022-12-19T08:38:42.784Z,81.00
2022-12-19T08:39:43.092Z,80.90
2022-12-19T08:40:47.350Z,80.68
2022-12-19T08:41:43.693Z,80.68
2022-12-19T08:42:44.010Z,80.58
2022-12-19T08:43:44.310Z,80.58
2022-12-19T08:44:44.662Z,80.68
2022-12-19T08:45:44.973Z,80.68
2022-12-19T08:46:49.920Z,80.65
2022-12-19T08:47:46.540Z,80.65
2022-12-19T08:48:45.795Z,80.65
2022-12-19T08:49:46.091Z,80.54
2022-12-19T08:50:46.395Z,80.54
2022-12-19T08:51:46.712Z,80.65
2022-12-19T08:52:47.033Z,80.65
2022-12-19T08:53:47.320Z,80.54
2022-12-19T08:54:47.628Z,80.51
2022-12-19T08:55:47.989Z,80.61
2022-12-19T08:56:48.202Z,80.51
2022-12-19T08:57:48.512Z,80.51
2022-12-19T08:58:48.802Z,80.51
2022-12-19T08:59:49.094Z,80.61
2022-12-19T09:00:55.518Z,80.51
2022-12-19T09:01:50.752Z,80.40
2022-12-19T09:02:50.164Z,80.40
2022-12-19T09:04:04.580Z,80.40
2022-12-19T09:05:59.558Z,80.51
2022-12-19T09:06:05.101Z,80.47
2022-12-19T09:06:52.178Z,80.47
2022-12-19T09:07:51.421Z,80.68
2022-12-19T09:08:51.704Z,80.57
2022-12-19T09:09:52.569Z,80.47
2022-12-19T09:10:52.312Z,80.47
2022-12-19T09:11:52.625Z,80.36
2022-12-19T09:12:56.450Z,80.36
2022-12-19T09:13:54.172Z,80.36
2022-12-19T09:14:53.544Z,80.36
2022-12-19T09:15:53.838Z,80.26
2022-12-19T09:16:54.223Z,80.36
2022-12-19T09:17:54.370Z,80.43
2022-12-19T09:18:54.685Z,80.33
2022-12-19T09:19:54.994Z,80.43
2022-12-19T09:20:55.353Z,80.33
2022-12-19T09:21:55.521Z,80.33
2022-12-19T09:22:55.811Z,80.22
2022-12-19T09:23:59.326Z,80.33
2022-12-19T09:24:57.408Z,80.33
2022-12-19T09:25:56.631Z,80.33
2022-12-19T09:26:56.955Z,80.43
2022-12-19T09:28:26.459Z,80.33
2022-12-19T09:28:58.600Z,80.33
2022-12-19T09:29:57.834Z,80.33
2022-12-19T09:30:58.221Z,80.33
2022-12-19T09:31:58.415Z,80.43
2022-12-19T09:32:58.778Z,80.54
2022-12-19T09:33:58.952Z,80.54
2022-12-19T09:34:59.254Z,80.54
2022-12-19T09:35:59.573Z,80.50
2022-12-19T09:36:59.883Z,80.29
2022-12-19T09:38:00.742Z,80.18
2022-12-19T09:39:00.405Z,80.29
2022-12-19T09:40:00.743Z,80.29
2022-12-19T09:41:01.054Z,80.43
2022-12-19T09:42:01.360Z,80.64
2022-12-19T09:43:01.667Z,80.75
2022-12-19T09:44:02.225Z,80.82
2022-12-19T09:45:02.272Z,80.82
2022-12-19T09:46:02.638Z,80.82
2022-12-19T09:47:02.831Z,80.82
2022-12-19T09:48:03.117Z,80.82
2022-12-19T09:49:03.286Z,80.71
2022-12-19T09:50:03.595Z,80.82
2022-12-19T09:51:09.653Z,80.92
2022-12-19T09:52:05.214Z,80.82
2022-12-19T09:53:04.440Z,80.82
2022-12-19T09:54:04.753Z,80.71
2022-12-19T09:55:05.074Z,80.60
2022-12-19T09:56:05.356Z,80.57
2022-12-19T09:57:05.654Z,80.57
2022-12-19T09:58:06.196Z,80.46
2022-12-19T09:59:06.233Z,80.57
2022-12-19T10:00:06.514Z,80.57
2022-12-19T10:01:06.869Z,80.57
2022-12-19T10:02:07.191Z,80.46
2022-12-19T10:03:07.474Z,80.46
2022-12-19T10:04:07.646Z,80.57
2022-12-19T10:05:30.167Z,80.53
2022-12-19T10:07:10.623Z,80.53
2022-12-19T10:07:30.564Z,80.53
2022-12-19T10:08:10.473Z,80.53
2022-12-19T10:11:07.323Z,80.43
2022-12-19T10:12:36.578Z,80.43
2022-12-19T10:12:46.643Z,80.64
2022-12-19T10:12:47.488Z,80.64
2022-12-19T10:13:13.536Z,80.64
2022-12-19T10:14:10.596Z,80.53
2022-12-19T10:15:10.908Z,80.64
2022-12-19T10:16:11.259Z,80.74
2022-12-19T10:17:26.787Z,80.95
2022-12-19T10:18:12.744Z,80.95
2022-12-19T10:19:11.958Z,81.05
2022-12-19T10:20:12.269Z,81.12
2022-12-19T10:21:12.568Z,81.12
2022-12-19T10:22:19.954Z,81.02
2022-12-19T10:23:14.137Z,80.91
2022-12-19T10:24:13.353Z,80.81
2022-12-19T10:25:13.659Z,80.60
2022-12-19T10:26:13.958Z,80.60
2022-12-19T10:27:14.240Z,80.67
2022-12-19T10:28:14.534Z,80.57
2022-12-19T10:29:14.827Z,80.57
2022-12-19T10:30:15.106Z,80.57
2022-12-19T10:31:21.578Z,80.46
2022-12-19T10:32:16.771Z,80.57
2022-12-19T10:33:20.669Z,80.57
2022-12-19T10:34:17.213Z,80.46
2022-12-19T10:35:16.438Z,80.46
2022-12-19T10:36:16.758Z,80.46
2022-12-19T10:37:27.585Z,80.57
2022-12-19T10:38:18.340Z,80.53
2022-12-19T10:39:17.685Z,80.63
2022-12-19T10:40:27.195Z,80.63
2022-12-19T10:41:19.254Z,80.63
2022-12-19T10:42:18.500Z,80.74
2022-12-19T10:43:28.637Z,80.63
2022-12-19T10:44:20.048Z,80.32
2022-12-19T10:45:19.315Z,80.32
2022-12-19T10:46:19.676Z,80.21
2022-12-19T10:47:19.851Z,80.21
2022-12-19T10:48:22.478Z,80.32
2022-12-19T10:49:21.437Z,80.32
2022-12-19T10:50:20.762Z,80.53
2022-12-19T10:51:21.065Z,80.63
2022-12-19T10:52:21.333Z,80.74
2022-12-19T10:53:21.609Z,80.70
2022-12-19T10:54:21.954Z,80.91
2022-12-19T10:55:22.300Z,81.12
2022-12-19T10:56:22.651Z,81.23
2022-12-19T10:57:22.953Z,81.12
2022-12-19T10:58:23.253Z,81.12
2022-12-19T10:59:23.565Z,81.23
2022-12-19T11:00:23.840Z,81.19
2022-12-19T11:01:25.040Z,81.19
2022-12-19T11:02:24.474Z,81.08
2022-12-19T11:03:24.852Z,80.98
2022-12-19T11:04:25.056Z,80.98
2022-12-19T11:05:25.323Z,80.98
2022-12-19T11:06:25.653Z,80.98
2022-12-19T11:07:25.938Z,80.77
2022-12-19T11:08:26.311Z,80.63
2022-12-19T11:09:26.530Z,80.63
2022-12-19T11:11:15.496Z,80.63
2022-12-19T11:12:33.594Z,80.63
2022-12-19T11:15:55.605Z,80.66
2022-12-19T11:18:20.906Z,80.77
2022-12-19T11:18:27.803Z,80.66
2022-12-19T11:19:21.245Z,80.87
2022-12-19T11:19:30.475Z,80.83
2022-12-19T11:21:17.263Z,80.94
2022-12-19T11:25:22.518Z,81.04
2022-12-19T11:29:17.483Z,81.04
2022-12-19T11:29:26.221Z,80.73
2022-12-19T11:29:27.251Z,81.04
2022-12-19T11:29:30.355Z,81.36
2022-12-19T11:29:33.807Z,81.26
2022-12-19T11:29:40.931Z,80.94
2022-12-19T11:29:41.073Z,81.46
2022-12-19T11:29:43.288Z,81.46
2022-12-19T11:30:25.736Z,81.36
2022-12-19T11:30:41.367Z,81.36
2022-12-19T11:32:44.515Z,81.53
2022-12-19T11:33:34.636Z,81.74
2022-12-19T11:34:33.904Z,81.63
2022-12-19T11:35:36.646Z,81.53
2022-12-19T11:36:34.513Z,81.53
2022-12-19T11:37:34.796Z,81.43
2022-12-19T11:38:35.083Z,81.53
2022-12-19T11:39:35.437Z,81.43
2022-12-19T11:40:35.751Z,81.53
2022-12-19T11:41:36.097Z,81.63
2022-12-19T11:42:36.295Z,81.92
2022-12-19T11:43:45.828Z,82.23
2022-12-19T11:44:37.933Z,82.33
2022-12-19T11:45:37.147Z,82.43
2022-12-19T11:46:37.502Z,82.54
2022-12-19T11:47:37.818Z,82.43
2022-12-19T11:48:38.133Z,82.75
2022-12-19T11:49:38.463Z,82.96
2022-12-19T11:50:38.691Z,82.96
2022-12-19T11:51:39.019Z,82.96
2022-12-19T11:53:04.149Z,82.75
2022-12-19T11:53:40.617Z,82.65
2022-12-19T11:54:39.892Z,82.65
2022-12-19T11:55:40.193Z,82.33
2022-12-19T11:56:40.503Z,82.12
2022-12-19T11:57:40.817Z,82.23
2022-12-19T11:58:41.119Z,82.23
2022-12-19T11:59:41.424Z,82.23
2022-12-19T12:00:41.724Z,82.12
2022-12-19T12:01:42.091Z,82.12
2022-12-19T12:02:42.287Z,82.23
2022-12-19T12:03:42.723Z,82.43
2022-12-19T12:04:43.875Z,82.54
2022-12-19T12:05:43.100Z,82.86
2022-12-19T12:06:45.541Z,82.96
2022-12-19T12:10:12.742Z,82.96
2022-12-19T12:10:27.941Z,83.06
2022-12-19T12:12:52.575Z,83.27
2022-12-19T12:14:10.385Z,83.48
2022-12-19T12:19:10.296Z,83.59
2022-12-19T12:21:01.912Z,83.80
2022-12-19T12:21:44.754Z,83.76
2022-12-19T12:25:10.782Z,84.00
2022-12-19T12:27:43.822Z,83.97
2022-12-19T12:29:15.779Z,84.11
2022-12-19T12:31:00.481Z,84.11
2022-12-19T12:31:05.598Z,83.86
2022-12-19T12:31:07.544Z,84.07
2022-12-19T12:31:07.646Z,83.86
2022-12-19T12:31:08.294Z,84.07
2022-12-19T12:31:22.292Z,83.86
2022-12-19T12:31:41.610Z,83.97
2022-12-19T12:31:43.407Z,84.59
2022-12-19T12:31:50.281Z,84.28
2022-12-19T12:31:51.155Z,84.56
2022-12-19T12:31:53.295Z,84.07
2022-12-19T12:32:00.979Z,84.56
2022-12-19T12:32:02.749Z,84.49
2022-12-19T12:32:04.540Z,84.56
2022-12-19T12:35:33.641Z,84.56
2022-12-19T12:35:42.530Z,84.14
2022-12-19T12:35:46.387Z,84.24
2022-12-19T12:35:51.344Z,84.24
2022-12-19T12:38:54.344Z,84.24
2022-12-19T12:39:53.502Z,84.45
2022-12-19T12:40:53.792Z,84.56
2022-12-19T12:41:54.160Z,84.66
2022-12-19T12:42:54.442Z,84.66
2022-12-19T12:43:54.741Z,84.66
2022-12-19T12:44:54.908Z,84.77
2022-12-19T12:45:55.399Z,84.87
2022-12-19T12:46:55.450Z,85.08
2022-12-19T12:47:55.782Z,85.18
2022-12-19T12:48:56.082Z,85.29
2022-12-19T12:49:56.401Z,85.50
2022-12-19T12:50:56.724Z,85.60
2022-12-19T12:51:57.114Z,85.67
2022-12-19T12:52:57.374Z,85.77
2022-12-19T12:53:57.541Z,85.88
2022-12-19T12:54:57.929Z,85.88
2022-12-19T12:55:58.095Z,85.88
2022-12-19T12:56:58.436Z,85.77
2022-12-19T12:57:58.723Z,85.77
2022-12-19T12:58:59.017Z,85.77
2022-12-19T12:59:59.343Z,85.88
2022-12-19T13:00:59.689Z,85.88
2022-12-19T13:02:00.499Z,85.98